sensor_id;sensor_type;location;lat;lon;timestamp;P1;durP1;ratioP1;P2;durP2;ratioP2
37859;SDS011;23698;52.014;5.190;2024-01-06T00:02:25;19.95;;;10.85;;
37859;SDS011;23698;52.014;5.190;2024-01-06T00:05:12;20.55;;;10.85;;
37859;SDS011;23698;52.014;5.190;2024-01-06T00:07:59;19.20;;;10.65;;
37859;SDS011;23698;52.014;5.190;2024-01-06T00:10:47;23.42;;;11.68;;
37859;SDS011;23698;52.014;5.190;2024-01-06T00:13:34;20.90;;;11.45;;
37859;SDS011;23698;52.014;5.190;2024-01-06T00:16:21;21.17;;;11.25;;
37859;SDS011;23698;52.014;5.190;2024-01-06T00:19:11;21.55;;;11.38;;
37859;SDS011;23698;52.014;5.190;2024-01-06T00:21:58;20.50;;;10.73;;
37859;SDS011;23698;52.014;5.190;2024-01-06T00:24:46;19.75;;;10.10;;
37859;SDS011;23698;52.014;5.190;2024-01-06T00:27:34;21.80;;;11.02;;
37859;SDS011;23698;52.014;5.190;2024-01-06T00:30:21;21.67;;;10.88;;
37859;SDS011;23698;52.014;5.190;2024-01-06T00:33:08;19.50;;;10.48;;
37859;SDS011;23698;52.014;5.190;2024-01-06T00:35:54;20.35;;;11.38;;
37859;SDS011;23698;52.014;5.190;2024-01-06T00:38:41;20.00;;;10.27;;
37859;SDS011;23698;52.014;5.190;2024-01-06T00:41:27;19.55;;;9.85;;
37859;SDS011;23698;52.014;5.190;2024-01-06T00:44:16;18.52;;;9.25;;
37859;SDS011;23698;52.014;5.190;2024-01-06T00:47:02;17.33;;;9.50;;
37859;SDS011;23698;52.014;5.190;2024-01-06T00:49:49;16.83;;;9.68;;
37859;SDS011;23698;52.014;5.190;2024-01-06T00:52:35;19.40;;;10.02;;
37859;SDS011;23698;52.014;5.190;2024-01-06T00:55:22;16.75;;;9.73;;
37859;SDS011;23698;52.014;5.190;2024-01-06T00:58:09;14.80;;;7.88;;
37859;SDS011;23698;52.014;5.190;2024-01-06T01:00:58;15.85;;;8.93;;
37859;SDS011;23698;52.014;5.190;2024-01-06T01:03:44;17.77;;;7.65;;
37859;SDS011;23698;52.014;5.190;2024-01-06T01:06:31;12.13;;;7.22;;
37859;SDS011;23698;52.014;5.190;2024-01-06T01:09:17;14.65;;;7.40;;
37859;SDS011;23698;52.014;5.190;2024-01-06T01:12:04;12.35;;;6.75;;
37859;SDS011;23698;52.014;5.190;2024-01-06T01:14:54;11.18;;;6.13;;
37859;SDS011;23698;52.014;5.190;2024-01-06T01:17:43;11.27;;;5.78;;
37859;SDS011;23698;52.014;5.190;2024-01-06T01:20:30;11.13;;;6.20;;
37859;SDS011;23698;52.014;5.190;2024-01-06T01:23:17;10.02;;;5.53;;
37859;SDS011;23698;52.014;5.190;2024-01-06T01:26:03;7.53;;;4.90;;
37859;SDS011;23698;52.014;5.190;2024-01-06T01:28:50;9.40;;;5.47;;
37859;SDS011;23698;52.014;5.190;2024-01-06T01:31:36;8.00;;;4.88;;
37859;SDS011;23698;52.014;5.190;2024-01-06T01:34:24;6.47;;;4.65;;
37859;SDS011;23698;52.014;5.190;2024-01-06T01:37:11;7.03;;;4.68;;
37859;SDS011;23698;52.014;5.190;2024-01-06T01:39:57;6.03;;;3.60;;
37859;SDS011;23698;52.014;5.190;2024-01-06T01:42:44;6.30;;;3.70;;
37859;SDS011;23698;52.014;5.190;2024-01-06T01:45:31;7.63;;;4.47;;
37859;SDS011;23698;52.014;5.190;2024-01-06T01:48:17;10.43;;;4.72;;
37859;SDS011;23698;52.014;5.190;2024-01-06T01:51:07;7.07;;;4.30;;
37859;SDS011;23698;52.014;5.190;2024-01-06T01:53:55;9.30;;;5.53;;
37859;SDS011;23698;52.014;5.190;2024-01-06T01:56:43;12.40;;;6.32;;
37859;SDS011;23698;52.014;5.190;2024-01-06T01:59:29;14.60;;;6.88;;
37859;SDS011;23698;52.014;5.190;2024-01-06T02:02:16;12.73;;;6.50;;
37859;SDS011;23698;52.014;5.190;2024-01-06T02:05:04;15.32;;;8.48;;
37859;SDS011;23698;52.014;5.190;2024-01-06T02:07:53;11.85;;;6.28;;
37859;SDS011;23698;52.014;5.190;2024-01-06T02:10:39;13.45;;;6.13;;
37859;SDS011;23698;52.014;5.190;2024-01-06T02:13:32;14.23;;;6.93;;
37859;SDS011;23698;52.014;5.190;2024-01-06T02:16:20;14.50;;;6.57;;
37859;SDS011;23698;52.014;5.190;2024-01-06T02:19:06;8.80;;;5.80;;
37859;SDS011;23698;52.014;5.190;2024-01-06T02:21:58;14.75;;;7.20;;
37859;SDS011;23698;52.014;5.190;2024-01-06T02:24:44;13.77;;;7.28;;
37859;SDS011;23698;52.014;5.190;2024-01-06T02:27:31;8.18;;;5.05;;
37859;SDS011;23698;52.014;5.190;2024-01-06T02:30:18;6.47;;;4.20;;
37859;SDS011;23698;52.014;5.190;2024-01-06T02:33:04;7.60;;;4.30;;
37859;SDS011;23698;52.014;5.190;2024-01-06T02:35:51;5.47;;;3.90;;
37859;SDS011;23698;52.014;5.190;2024-01-06T02:38:39;7.53;;;4.88;;
37859;SDS011;23698;52.014;5.190;2024-01-06T02:41:25;9.48;;;5.55;;
37859;SDS011;23698;52.014;5.190;2024-01-06T02:44:12;7.72;;;5.32;;
37859;SDS011;23698;52.014;5.190;2024-01-06T02:46:59;7.53;;;4.55;;
37859;SDS011;23698;52.014;5.190;2024-01-06T02:49:45;4.90;;;3.55;;
37859;SDS011;23698;52.014;5.190;2024-01-06T02:52:32;7.20;;;4.60;;
37859;SDS011;23698;52.014;5.190;2024-01-06T02:55:20;6.65;;;4.47;;
37859;SDS011;23698;52.014;5.190;2024-01-06T02:58:07;8.07;;;4.82;;
37859;SDS011;23698;52.014;5.190;2024-01-06T03:00:53;9.63;;;4.80;;
37859;SDS011;23698;52.014;5.190;2024-01-06T03:03:40;10.10;;;6.30;;
37859;SDS011;23698;52.014;5.190;2024-01-06T03:06:26;7.03;;;4.32;;
37859;SDS011;23698;52.014;5.190;2024-01-06T03:09:13;7.30;;;4.53;;
37859;SDS011;23698;52.014;5.190;2024-01-06T03:12:03;7.25;;;4.47;;
37859;SDS011;23698;52.014;5.190;2024-01-06T03:14:50;6.68;;;4.60;;
37859;SDS011;23698;52.014;5.190;2024-01-06T03:17:37;6.35;;;4.00;;
37859;SDS011;23698;52.014;5.190;2024-01-06T03:20:24;8.43;;;4.07;;
37859;SDS011;23698;52.014;5.190;2024-01-06T03:23:10;5.65;;;4.18;;
37859;SDS011;23698;52.014;5.190;2024-01-06T03:25:57;7.13;;;3.90;;
37859;SDS011;23698;52.014;5.190;2024-01-06T03:28:45;7.10;;;4.68;;
37859;SDS011;23698;52.014;5.190;2024-01-06T03:31:31;7.55;;;4.20;;
37859;SDS011;23698;52.014;5.190;2024-01-06T03:34:18;7.32;;;4.38;;
37859;SDS011;23698;52.014;5.190;2024-01-06T03:37:04;8.52;;;5.10;;
37859;SDS011;23698;52.014;5.190;2024-01-06T03:39:51;8.13;;;5.32;;
37859;SDS011;23698;52.014;5.190;2024-01-06T03:42:38;8.23;;;5.10;;
37859;SDS011;23698;52.014;5.190;2024-01-06T03:45:26;9.50;;;5.47;;
37859;SDS011;23698;52.014;5.190;2024-01-06T03:48:13;8.95;;;6.20;;
37859;SDS011;23698;52.014;5.190;2024-01-06T03:51:00;12.40;;;7.28;;
37859;SDS011;23698;52.014;5.190;2024-01-06T03:53:47;13.48;;;8.35;;
37859;SDS011;23698;52.014;5.190;2024-01-06T03:56:34;13.13;;;8.40;;
37859;SDS011;23698;52.014;5.190;2024-01-06T03:59:20;13.80;;;9.25;;
37859;SDS011;23698;52.014;5.190;2024-01-06T04:02:08;15.85;;;10.25;;
37859;SDS011;23698;52.014;5.190;2024-01-06T04:04:55;14.60;;;8.82;;
37859;SDS011;23698;52.014;5.190;2024-01-06T04:07:41;14.55;;;8.48;;
37859;SDS011;23698;52.014;5.190;2024-01-06T04:10:28;13.55;;;9.02;;
37859;SDS011;23698;52.014;5.190;2024-01-06T04:13:14;14.05;;;8.48;;
37859;SDS011;23698;52.014;5.190;2024-01-06T04:16:01;14.35;;;8.57;;
37859;SDS011;23698;52.014;5.190;2024-01-06T04:18:49;15.73;;;9.13;;
37859;SDS011;23698;52.014;5.190;2024-01-06T04:21:36;19.77;;;8.10;;
37859;SDS011;23698;52.014;5.190;2024-01-06T04:24:23;13.25;;;8.82;;
37859;SDS011;23698;52.014;5.190;2024-01-06T04:27:09;11.23;;;7.53;;
37859;SDS011;23698;52.014;5.190;2024-01-06T04:29:56;11.60;;;7.38;;
37859;SDS011;23698;52.014;5.190;2024-01-06T04:32:43;13.43;;;7.72;;
37859;SDS011;23698;52.014;5.190;2024-01-06T04:35:31;15.85;;;7.35;;
37859;SDS011;23698;52.014;5.190;2024-01-06T04:38:17;14.50;;;8.60;;
37859;SDS011;23698;52.014;5.190;2024-01-06T04:41:04;13.82;;;8.50;;
37859;SDS011;23698;52.014;5.190;2024-01-06T04:43:51;16.10;;;8.57;;
37859;SDS011;23698;52.014;5.190;2024-01-06T04:46:37;16.10;;;9.93;;
37859;SDS011;23698;52.014;5.190;2024-01-06T04:49:24;17.52;;;8.55;;
37859;SDS011;23698;52.014;5.190;2024-01-06T04:52:11;13.32;;;9.15;;
37859;SDS011;23698;52.014;5.190;2024-01-06T04:54:58;16.20;;;9.18;;
37859;SDS011;23698;52.014;5.190;2024-01-06T04:57:44;15.93;;;8.73;;
37859;SDS011;23698;52.014;5.190;2024-01-06T05:00:31;17.08;;;8.00;;
37859;SDS011;23698;52.014;5.190;2024-01-06T05:03:21;13.20;;;7.87;;
37859;SDS011;23698;52.014;5.190;2024-01-06T05:06:07;14.27;;;7.80;;
37859;SDS011;23698;52.014;5.190;2024-01-06T05:08:55;15.93;;;8.20;;
37859;SDS011;23698;52.014;5.190;2024-01-06T05:11:43;11.73;;;8.43;;
37859;SDS011;23698;52.014;5.190;2024-01-06T05:14:30;16.50;;;8.65;;
37859;SDS011;23698;52.014;5.190;2024-01-06T05:17:16;14.10;;;7.78;;
37859;SDS011;23698;52.014;5.190;2024-01-06T05:20:03;14.77;;;8.10;;
37859;SDS011;23698;52.014;5.190;2024-01-06T05:22:51;16.20;;;8.85;;
37859;SDS011;23698;52.014;5.190;2024-01-06T05:25:39;13.10;;;8.43;;
37859;SDS011;23698;52.014;5.190;2024-01-06T05:28:26;14.05;;;7.95;;
37859;SDS011;23698;52.014;5.190;2024-01-06T05:31:12;16.02;;;9.65;;
37859;SDS011;23698;52.014;5.190;2024-01-06T05:33:59;16.08;;;8.93;;
37859;SDS011;23698;52.014;5.190;2024-01-06T05:36:46;13.18;;;8.05;;
37859;SDS011;23698;52.014;5.190;2024-01-06T05:39:32;13.75;;;8.02;;
37859;SDS011;23698;52.014;5.190;2024-01-06T05:42:20;17.42;;;8.65;;
37859;SDS011;23698;52.014;5.190;2024-01-06T05:45:09;16.25;;;9.18;;
37859;SDS011;23698;52.014;5.190;2024-01-06T05:47:57;19.08;;;9.43;;
37859;SDS011;23698;52.014;5.190;2024-01-06T05:50:44;14.93;;;8.43;;
37859;SDS011;23698;52.014;5.190;2024-01-06T05:53:31;14.38;;;8.13;;
37859;SDS011;23698;52.014;5.190;2024-01-06T05:56:23;14.32;;;8.20;;
37859;SDS011;23698;52.014;5.190;2024-01-06T05:59:12;17.98;;;8.27;;
37859;SDS011;23698;52.014;5.190;2024-01-06T06:01:59;14.57;;;7.05;;
37859;SDS011;23698;52.014;5.190;2024-01-06T06:04:46;17.45;;;7.93;;
37859;SDS011;23698;52.014;5.190;2024-01-06T06:07:33;12.38;;;7.65;;
37859;SDS011;23698;52.014;5.190;2024-01-06T06:10:23;17.25;;;7.43;;
37859;SDS011;23698;52.014;5.190;2024-01-06T06:13:15;13.43;;;8.48;;
37859;SDS011;23698;52.014;5.190;2024-01-06T06:16:03;15.40;;;8.13;;
37859;SDS011;23698;52.014;5.190;2024-01-06T06:18:50;17.17;;;8.48;;
37859;SDS011;23698;52.014;5.190;2024-01-06T06:21:36;13.82;;;8.20;;
37859;SDS011;23698;52.014;5.190;2024-01-06T06:24:23;14.52;;;8.13;;
37859;SDS011;23698;52.014;5.190;2024-01-06T06:27:10;17.90;;;8.73;;
37859;SDS011;23698;52.014;5.190;2024-01-06T06:29:56;13.75;;;8.02;;
37859;SDS011;23698;52.014;5.190;2024-01-06T06:32:44;16.88;;;9.88;;
37859;SDS011;23698;52.014;5.190;2024-01-06T06:35:31;17.15;;;8.80;;
37859;SDS011;23698;52.014;5.190;2024-01-06T06:38:18;16.05;;;8.55;;
37859;SDS011;23698;52.014;5.190;2024-01-06T06:41:06;15.25;;;9.40;;
37859;SDS011;23698;52.014;5.190;2024-01-06T06:43:53;18.88;;;9.55;;
37859;SDS011;23698;52.014;5.190;2024-01-06T06:46:39;18.90;;;9.20;;
37859;SDS011;23698;52.014;5.190;2024-01-06T06:49:27;14.52;;;8.68;;
37859;SDS011;23698;52.014;5.190;2024-01-06T06:52:14;22.95;;;10.15;;
37859;SDS011;23698;52.014;5.190;2024-01-06T06:55:01;22.90;;;8.98;;
37859;SDS011;23698;52.014;5.190;2024-01-06T06:57:47;17.55;;;10.10;;
37859;SDS011;23698;52.014;5.190;2024-01-06T07:00:34;20.30;;;9.77;;
37859;SDS011;23698;52.014;5.190;2024-01-06T07:03:22;18.13;;;8.75;;
37859;SDS011;23698;52.014;5.190;2024-01-06T07:06:12;16.60;;;8.60;;
37859;SDS011;23698;52.014;5.190;2024-01-06T07:08:59;14.23;;;8.00;;
37859;SDS011;23698;52.014;5.190;2024-01-06T07:11:46;11.68;;;7.07;;
37859;SDS011;23698;52.014;5.190;2024-01-06T07:14:32;10.73;;;7.35;;
37859;SDS011;23698;52.014;5.190;2024-01-06T07:17:19;14.10;;;7.10;;
37859;SDS011;23698;52.014;5.190;2024-01-06T07:20:06;12.43;;;7.13;;
37859;SDS011;23698;52.014;5.190;2024-01-06T07:22:54;12.00;;;6.35;;
37859;SDS011;23698;52.014;5.190;2024-01-06T07:25:41;12.35;;;6.63;;
37859;SDS011;23698;52.014;5.190;2024-01-06T07:28:28;15.13;;;7.18;;
37859;SDS011;23698;52.014;5.190;2024-01-06T07:31:15;10.73;;;6.90;;
37859;SDS011;23698;52.014;5.190;2024-01-06T07:34:02;11.98;;;7.00;;
37859;SDS011;23698;52.014;5.190;2024-01-06T07:36:49;12.05;;;6.72;;
37859;SDS011;23698;52.014;5.190;2024-01-06T07:39:37;10.95;;;6.88;;
37859;SDS011;23698;52.014;5.190;2024-01-06T07:42:23;14.23;;;7.65;;
37859;SDS011;23698;52.014;5.190;2024-01-06T07:45:10;15.10;;;7.78;;
37859;SDS011;23698;52.014;5.190;2024-01-06T07:47:58;13.45;;;7.65;;
37859;SDS011;23698;52.014;5.190;2024-01-06T07:50:46;15.13;;;7.57;;
37859;SDS011;23698;52.014;5.190;2024-01-06T07:53:32;14.15;;;8.27;;
37859;SDS011;23698;52.014;5.190;2024-01-06T07:56:20;13.95;;;8.48;;
37859;SDS011;23698;52.014;5.190;2024-01-06T07:59:07;14.05;;;8.95;;
37859;SDS011;23698;52.014;5.190;2024-01-06T08:01:53;16.20;;;8.30;;
37859;SDS011;23698;52.014;5.190;2024-01-06T08:04:40;16.02;;;8.27;;
37859;SDS011;23698;52.014;5.190;2024-01-06T08:07:26;15.38;;;7.47;;
37859;SDS011;23698;52.014;5.190;2024-01-06T08:10:13;14.73;;;7.65;;
37859;SDS011;23698;52.014;5.190;2024-01-06T08:13:01;16.42;;;8.60;;
37859;SDS011;23698;52.014;5.190;2024-01-06T08:15:48;12.68;;;7.60;;
37859;SDS011;23698;52.014;5.190;2024-01-06T08:18:35;15.40;;;7.75;;
37859;SDS011;23698;52.014;5.190;2024-01-06T08:21:22;14.00;;;6.60;;
37859;SDS011;23698;52.014;5.190;2024-01-06T08:24:09;12.10;;;6.90;;
37859;SDS011;23698;52.014;5.190;2024-01-06T08:26:55;17.27;;;8.20;;
37859;SDS011;23698;52.014;5.190;2024-01-06T08:29:43;14.23;;;8.45;;
37859;SDS011;23698;52.014;5.190;2024-01-06T08:32:30;13.60;;;8.23;;
37859;SDS011;23698;52.014;5.190;2024-01-06T08:35:17;17.15;;;7.63;;
37859;SDS011;23698;52.014;5.190;2024-01-06T08:38:04;15.93;;;8.05;;
37859;SDS011;23698;52.014;5.190;2024-01-06T08:40:51;17.10;;;8.88;;
37859;SDS011;23698;52.014;5.190;2024-01-06T08:43:38;10.98;;;8.15;;
37859;SDS011;23698;52.014;5.190;2024-01-06T08:46:26;15.40;;;6.50;;
37859;SDS011;23698;52.014;5.190;2024-01-06T08:49:13;11.50;;;7.72;;
37859;SDS011;23698;52.014;5.190;2024-01-06T08:52:00;13.70;;;7.38;;
37859;SDS011;23698;52.014;5.190;2024-01-06T08:54:46;18.92;;;8.20;;
37859;SDS011;23698;52.014;5.190;2024-01-06T08:57:34;16.20;;;7.82;;
37859;SDS011;23698;52.014;5.190;2024-01-06T09:00:22;18.00;;;7.78;;
37859;SDS011;23698;52.014;5.190;2024-01-06T09:03:10;16.42;;;8.00;;
37859;SDS011;23698;52.014;5.190;2024-01-06T09:05:58;13.85;;;8.07;;
37859;SDS011;23698;52.014;5.190;2024-01-06T09:08:45;15.48;;;7.43;;
37859;SDS011;23698;52.014;5.190;2024-01-06T09:11:31;14.55;;;8.82;;
37859;SDS011;23698;52.014;5.190;2024-01-06T09:14:18;17.83;;;8.50;;
37859;SDS011;23698;52.014;5.190;2024-01-06T09:17:04;19.10;;;9.73;;
37859;SDS011;23698;52.014;5.190;2024-01-06T09:19:52;14.52;;;9.13;;
37859;SDS011;23698;52.014;5.190;2024-01-06T09:22:39;20.25;;;9.77;;
37859;SDS011;23698;52.014;5.190;2024-01-06T09:25:26;15.25;;;8.45;;
37859;SDS011;23698;52.014;5.190;2024-01-06T09:28:13;12.85;;;7.88;;
37859;SDS011;23698;52.014;5.190;2024-01-06T09:31:00;18.75;;;8.90;;
37859;SDS011;23698;52.014;5.190;2024-01-06T09:33:47;16.80;;;8.98;;
37859;SDS011;23698;52.014;5.190;2024-01-06T09:36:36;15.77;;;7.75;;
37859;SDS011;23698;52.014;5.190;2024-01-06T09:39:23;15.80;;;7.22;;
37859;SDS011;23698;52.014;5.190;2024-01-06T09:42:10;15.68;;;7.00;;
37859;SDS011;23698;52.014;5.190;2024-01-06T09:44:56;13.90;;;6.53;;
37859;SDS011;23698;52.014;5.190;2024-01-06T09:47:43;11.75;;;6.53;;
37859;SDS011;23698;52.014;5.190;2024-01-06T09:50:34;9.25;;;5.75;;
37859;SDS011;23698;52.014;5.190;2024-01-06T09:53:22;8.77;;;5.45;;
37859;SDS011;23698;52.014;5.190;2024-01-06T09:56:14;14.30;;;5.70;;
37859;SDS011;23698;52.014;5.190;2024-01-06T09:59:01;12.73;;;5.82;;
37859;SDS011;23698;52.014;5.190;2024-01-06T10:01:49;14.60;;;6.50;;
37859;SDS011;23698;52.014;5.190;2024-01-06T10:04:38;9.55;;;5.05;;
37859;SDS011;23698;52.014;5.190;2024-01-06T10:07:25;10.60;;;5.95;;
37859;SDS011;23698;52.014;5.190;2024-01-06T10:10:14;8.52;;;4.60;;
37859;SDS011;23698;52.014;5.190;2024-01-06T10:13:01;12.00;;;4.97;;
37859;SDS011;23698;52.014;5.190;2024-01-06T10:15:48;9.48;;;4.70;;
37859;SDS011;23698;52.014;5.190;2024-01-06T10:18:35;10.13;;;5.10;;
37859;SDS011;23698;52.014;5.190;2024-01-06T10:21:22;9.60;;;3.80;;
37859;SDS011;23698;52.014;5.190;2024-01-06T10:24:11;8.52;;;4.65;;
37859;SDS011;23698;52.014;5.190;2024-01-06T10:27:00;10.57;;;4.40;;
37859;SDS011;23698;52.014;5.190;2024-01-06T10:29:47;8.45;;;3.60;;
37859;SDS011;23698;52.014;5.190;2024-01-06T10:32:33;7.38;;;4.10;;
37859;SDS011;23698;52.014;5.190;2024-01-06T10:35:21;13.95;;;4.40;;
37859;SDS011;23698;52.014;5.190;2024-01-06T10:38:07;12.05;;;3.95;;
37859;SDS011;23698;52.014;5.190;2024-01-06T10:40:56;7.25;;;4.57;;
37859;SDS011;23698;52.014;5.190;2024-01-06T10:43:45;7.63;;;4.53;;
37859;SDS011;23698;52.014;5.190;2024-01-06T10:46:32;7.13;;;4.10;;
37859;SDS011;23698;52.014;5.190;2024-01-06T10:49:20;5.53;;;3.92;;
37859;SDS011;23698;52.014;5.190;2024-01-06T10:52:10;6.70;;;3.92;;
37859;SDS011;23698;52.014;5.190;2024-01-06T10:54:58;5.72;;;3.53;;
37859;SDS011;23698;52.014;5.190;2024-01-06T10:57:44;10.80;;;4.60;;
37859;SDS011;23698;52.014;5.190;2024-01-06T11:00:33;6.22;;;3.28;;
37859;SDS011;23698;52.014;5.190;2024-01-06T11:03:20;7.18;;;4.18;;
37859;SDS011;23698;52.014;5.190;2024-01-06T11:06:09;9.30;;;4.68;;
37859;SDS011;23698;52.014;5.190;2024-01-06T11:08:57;7.25;;;3.88;;
37859;SDS011;23698;52.014;5.190;2024-01-06T11:11:50;6.53;;;4.28;;
37859;SDS011;23698;52.014;5.190;2024-01-06T11:14:38;9.55;;;4.13;;
37859;SDS011;23698;52.014;5.190;2024-01-06T11:20:55;8.73;;;4.40;;
37859;SDS011;23698;52.014;5.190;2024-01-06T11:27:07;13.52;;;4.82;;
37859;SDS011;23698;52.014;5.190;2024-01-06T11:29:54;13.93;;;6.07;;
37859;SDS011;23698;52.014;5.190;2024-01-06T11:32:41;9.80;;;5.60;;
37859;SDS011;23698;52.014;5.190;2024-01-06T11:35:33;12.63;;;6.85;;
37859;SDS011;23698;52.014;5.190;2024-01-06T11:38:20;15.45;;;7.85;;
37859;SDS011;23698;52.014;5.190;2024-01-06T11:41:07;15.32;;;7.40;;
37859;SDS011;23698;52.014;5.190;2024-01-06T11:43:56;10.85;;;6.70;;
37859;SDS011;23698;52.014;5.190;2024-01-06T11:46:43;11.35;;;6.72;;
37859;SDS011;23698;52.014;5.190;2024-01-06T11:49:31;9.98;;;6.40;;
37859;SDS011;23698;52.014;5.190;2024-01-06T11:52:20;11.52;;;7.13;;
37859;SDS011;23698;52.014;5.190;2024-01-06T11:55:07;11.98;;;6.85;;
37859;SDS011;23698;52.014;5.190;2024-01-06T11:57:55;12.57;;;7.05;;
37859;SDS011;23698;52.014;5.190;2024-01-06T12:00:42;10.85;;;6.43;;
37859;SDS011;23698;52.014;5.190;2024-01-06T12:03:33;11.10;;;7.07;;
37859;SDS011;23698;52.014;5.190;2024-01-06T12:06:21;21.58;;;7.80;;
37859;SDS011;23698;52.014;5.190;2024-01-06T12:09:09;12.93;;;6.93;;
37859;SDS011;23698;52.014;5.190;2024-01-06T12:12:02;13.15;;;7.40;;
37859;SDS011;23698;52.014;5.190;2024-01-06T12:14:51;11.80;;;7.28;;
37859;SDS011;23698;52.014;5.190;2024-01-06T12:17:38;14.75;;;7.03;;
37859;SDS011;23698;52.014;5.190;2024-01-06T12:20:26;11.93;;;6.88;;
37859;SDS011;23698;52.014;5.190;2024-01-06T12:23:23;12.30;;;7.40;;
37859;SDS011;23698;52.014;5.190;2024-01-06T12:26:11;10.88;;;6.57;;
37859;SDS011;23698;52.014;5.190;2024-01-06T12:28:57;16.30;;;7.05;;
37859;SDS011;23698;52.014;5.190;2024-01-06T12:31:44;9.73;;;5.90;;
37859;SDS011;23698;52.014;5.190;2024-01-06T12:34:31;12.80;;;6.85;;
37859;SDS011;23698;52.014;5.190;2024-01-06T12:37:18;13.45;;;7.30;;
37859;SDS011;23698;52.014;5.190;2024-01-06T12:40:05;10.85;;;6.65;;
37859;SDS011;23698;52.014;5.190;2024-01-06T12:42:56;11.70;;;7.20;;
37859;SDS011;23698;52.014;5.190;2024-01-06T12:45:43;13.65;;;7.78;;
37859;SDS011;23698;52.014;5.190;2024-01-06T12:48:32;15.30;;;7.72;;
37859;SDS011;23698;52.014;5.190;2024-01-06T12:51:18;13.38;;;7.35;;
37859;SDS011;23698;52.014;5.190;2024-01-06T12:54:08;12.60;;;7.13;;
37859;SDS011;23698;52.014;5.190;2024-01-06T12:56:54;12.88;;;7.47;;
37859;SDS011;23698;52.014;5.190;2024-01-06T12:59:42;11.43;;;7.00;;
37859;SDS011;23698;52.014;5.190;2024-01-06T13:02:29;11.23;;;6.32;;
37859;SDS011;23698;52.014;5.190;2024-01-06T13:05:16;13.40;;;7.07;;
37859;SDS011;23698;52.014;5.190;2024-01-06T13:08:03;10.80;;;6.82;;
37859;SDS011;23698;52.014;5.190;2024-01-06T13:10:51;15.93;;;7.97;;
37859;SDS011;23698;52.014;5.190;2024-01-06T13:13:38;13.93;;;7.18;;
37859;SDS011;23698;52.014;5.190;2024-01-06T13:16:26;13.75;;;7.10;;
37859;SDS011;23698;52.014;5.190;2024-01-06T13:19:13;11.77;;;7.18;;
37859;SDS011;23698;52.014;5.190;2024-01-06T13:21:59;13.15;;;7.28;;
37859;SDS011;23698;52.014;5.190;2024-01-06T13:24:46;17.88;;;8.18;;
37859;SDS011;23698;52.014;5.190;2024-01-06T13:27:38;16.50;;;8.13;;
37859;SDS011;23698;52.014;5.190;2024-01-06T13:30:25;11.30;;;7.22;;
37859;SDS011;23698;52.014;5.190;2024-01-06T13:33:14;15.68;;;7.57;;
37859;SDS011;23698;52.014;5.190;2024-01-06T13:36:01;19.70;;;8.30;;
37859;SDS011;23698;52.014;5.190;2024-01-06T13:38:49;16.15;;;8.18;;
37859;SDS011;23698;52.014;5.190;2024-01-06T13:41:36;13.77;;;8.30;;
37859;SDS011;23698;52.014;5.190;2024-01-06T13:44:23;13.73;;;8.38;;
37859;SDS011;23698;52.014;5.190;2024-01-06T13:47:09;14.98;;;7.80;;
37859;SDS011;23698;52.014;5.190;2024-01-06T13:49:59;13.68;;;7.60;;
37859;SDS011;23698;52.014;5.190;2024-01-06T13:52:46;15.05;;;8.23;;
37859;SDS011;23698;52.014;5.190;2024-01-06T13:55:33;13.77;;;8.18;;
37859;SDS011;23698;52.014;5.190;2024-01-06T13:58:20;15.70;;;8.93;;
37859;SDS011;23698;52.014;5.190;2024-01-06T14:01:07;22.13;;;10.40;;
37859;SDS011;23698;52.014;5.190;2024-01-06T14:03:57;14.70;;;8.03;;
37859;SDS011;23698;52.014;5.190;2024-01-06T14:06:46;14.43;;;8.38;;
37859;SDS011;23698;52.014;5.190;2024-01-06T14:09:39;16.98;;;8.43;;
37859;SDS011;23698;52.014;5.190;2024-01-06T14:12:26;17.27;;;9.18;;
37859;SDS011;23698;52.014;5.190;2024-01-06T14:15:16;16.30;;;8.65;;
37859;SDS011;23698;52.014;5.190;2024-01-06T14:18:03;16.60;;;8.38;;
37859;SDS011;23698;52.014;5.190;2024-01-06T14:20:51;19.95;;;8.73;;
37859;SDS011;23698;52.014;5.190;2024-01-06T14:23:42;16.65;;;8.48;;
37859;SDS011;23698;52.014;5.190;2024-01-06T14:26:29;14.55;;;8.10;;
37859;SDS011;23698;52.014;5.190;2024-01-06T14:29:16;28.05;;;9.63;;
37859;SDS011;23698;52.014;5.190;2024-01-06T14:32:03;15.70;;;7.80;;
37859;SDS011;23698;52.014;5.190;2024-01-06T14:34:51;15.45;;;8.73;;
37859;SDS011;23698;52.014;5.190;2024-01-06T14:37:37;15.55;;;7.72;;
37859;SDS011;23698;52.014;5.190;2024-01-06T14:40:26;14.25;;;8.45;;
37859;SDS011;23698;52.014;5.190;2024-01-06T14:43:12;14.27;;;7.28;;
37859;SDS011;23698;52.014;5.190;2024-01-06T14:45:59;18.92;;;9.18;;
37859;SDS011;23698;52.014;5.190;2024-01-06T14:48:45;17.05;;;8.85;;
37859;SDS011;23698;52.014;5.190;2024-01-06T14:51:32;14.82;;;7.93;;
37859;SDS011;23698;52.014;5.190;2024-01-06T14:54:19;20.10;;;9.43;;
37859;SDS011;23698;52.014;5.190;2024-01-06T14:57:07;17.23;;;9.00;;
37859;SDS011;23698;52.014;5.190;2024-01-06T14:59:54;18.10;;;9.27;;
37859;SDS011;23698;52.014;5.190;2024-01-06T15:02:41;15.73;;;7.63;;
37859;SDS011;23698;52.014;5.190;2024-01-06T15:05:31;18.15;;;8.88;;
37859;SDS011;23698;52.014;5.190;2024-01-06T15:08:19;17.65;;;8.35;;
37859;SDS011;23698;52.014;5.190;2024-01-06T15:11:05;19.65;;;8.70;;
37859;SDS011;23698;52.014;5.190;2024-01-06T15:13:55;19.23;;;8.43;;
37859;SDS011;23698;52.014;5.190;2024-01-06T15:16:41;16.70;;;9.07;;
37859;SDS011;23698;52.014;5.190;2024-01-06T15:19:28;12.07;;;7.45;;
37859;SDS011;23698;52.014;5.190;2024-01-06T15:22:16;15.15;;;7.72;;
37859;SDS011;23698;52.014;5.190;2024-01-06T15:25:03;14.02;;;8.10;;
37859;SDS011;23698;52.014;5.190;2024-01-06T15:27:52;13.27;;;7.80;;
37859;SDS011;23698;52.014;5.190;2024-01-06T15:30:40;16.02;;;7.32;;
37859;SDS011;23698;52.014;5.190;2024-01-06T15:33:27;10.52;;;6.13;;
37859;SDS011;23698;52.014;5.190;2024-01-06T15:36:14;11.02;;;6.28;;
37859;SDS011;23698;52.014;5.190;2024-01-06T15:39:01;11.40;;;6.80;;
37859;SDS011;23698;52.014;5.190;2024-01-06T15:41:47;9.68;;;6.25;;
37859;SDS011;23698;52.014;5.190;2024-01-06T15:44:34;8.38;;;5.10;;
37859;SDS011;23698;52.014;5.190;2024-01-06T15:47:22;11.75;;;5.43;;
37859;SDS011;23698;52.014;5.190;2024-01-06T15:50:09;10.82;;;5.60;;
37859;SDS011;23698;52.014;5.190;2024-01-06T15:52:55;10.00;;;5.50;;
37859;SDS011;23698;52.014;5.190;2024-01-06T15:55:42;8.02;;;5.63;;
37859;SDS011;23698;52.014;5.190;2024-01-06T15:58:29;12.90;;;6.53;;
37859;SDS011;23698;52.014;5.190;2024-01-06T16:01:16;9.02;;;5.80;;
37859;SDS011;23698;52.014;5.190;2024-01-06T16:04:05;9.77;;;5.60;;
37859;SDS011;23698;52.014;5.190;2024-01-06T16:06:52;8.90;;;5.45;;
37859;SDS011;23698;52.014;5.190;2024-01-06T16:09:38;9.85;;;5.47;;
37859;SDS011;23698;52.014;5.190;2024-01-06T16:12:25;11.13;;;5.45;;
37859;SDS011;23698;52.014;5.190;2024-01-06T16:15:16;10.52;;;6.25;;
37859;SDS011;23698;52.014;5.190;2024-01-06T16:18:05;7.78;;;5.05;;
37859;SDS011;23698;52.014;5.190;2024-01-06T16:20:54;8.82;;;4.85;;
37859;SDS011;23698;52.014;5.190;2024-01-06T16:23:43;11.35;;;5.78;;
37859;SDS011;23698;52.014;5.190;2024-01-06T16:26:29;11.85;;;5.07;;
37859;SDS011;23698;52.014;5.190;2024-01-06T16:29:16;9.45;;;4.93;;
37859;SDS011;23698;52.014;5.190;2024-01-06T16:32:03;8.88;;;4.13;;
37859;SDS011;23698;52.014;5.190;2024-01-06T16:34:50;7.60;;;4.38;;
37859;SDS011;23698;52.014;5.190;2024-01-06T16:37:39;9.38;;;4.35;;
37859;SDS011;23698;52.014;5.190;2024-01-06T16:40:26;7.70;;;4.50;;
37859;SDS011;23698;52.014;5.190;2024-01-06T16:43:12;8.98;;;4.90;;